createdAt,value
2018-11-02T00:01:01.231Z,23.53
2018-11-02T00:03:32.781Z,25.90
2018-11-02T00:06:04.931Z,21.87
2018-11-02T00:08:36.523Z,25.50
2018-11-02T00:11:08.198Z,21.40
2018-11-02T00:13:39.976Z,24.57
2018-11-02T00:16:11.631Z,20.10
2018-11-02T00:18:43.940Z,21.73
2018-11-02T00:21:15.484Z,22.53
2018-11-02T00:23:47.868Z,24.97
2018-11-02T00:26:19.430Z,23.00
2018-11-02T00:28:51.248Z,26.43
2018-11-02T00:31:22.808Z,25.23
2018-11-02T00:33:54.299Z,24.10
2018-11-02T00:36:26.660Z,22.93
2018-11-02T00:38:58.210Z,25.13
2018-11-02T00:41:29.818Z,21.80
2018-11-02T00:44:01.518Z,24.97
2018-11-02T00:46:33.063Z,23.97
2018-11-02T00:49:04.969Z,28.03
2018-11-02T00:51:37.834Z,29.90
2018-11-02T00:54:09.378Z,21.50
2018-11-02T00:56:41.284Z,23.43
2018-11-02T00:59:13.706Z,24.00
2018-11-02T01:01:45.351Z,24.13
2018-11-02T01:04:16.966Z,27.27
2018-11-02T01:06:48.522Z,23.60
2018-11-02T01:09:20.464Z,28.60
2018-11-02T01:11:52.886Z,22.00
2018-11-02T01:14:24.448Z,21.73
2018-11-02T01:16:56.282Z,23.07
2018-11-02T01:19:34.634Z,24.97
2018-11-02T01:22:06.889Z,25.70
2018-11-02T01:24:38.578Z,30.60
2018-11-02T01:27:11.240Z,26.70
2018-11-02T01:29:42.756Z,26.20
2018-11-02T01:32:14.627Z,24.97
2018-11-02T01:34:46.218Z,26.83
2018-11-02T01:37:17.826Z,29.20
2018-11-02T01:39:49.714Z,29.07
2018-11-02T01:42:21.167Z,25.80
2018-11-02T01:44:53.071Z,27.30
2018-11-02T01:47:25.504Z,24.37
2018-11-02T01:49:57.010Z,28.77
2018-11-02T01:52:28.981Z,27.73
2018-11-02T01:55:00.554Z,26.03
2018-11-02T01:57:32.097Z,32.93
2018-11-02T02:00:03.730Z,34.37
2018-11-02T02:02:35.328Z,29.80
2018-11-02T02:05:07.840Z,30.03
2018-11-02T02:07:39.346Z,27.70
2018-11-02T02:10:11.239Z,31.33
2018-11-02T02:12:42.855Z,32.47
2018-11-02T02:15:14.601Z,28.50
2018-11-02T02:17:46.343Z,30.87
2018-11-02T02:20:18.550Z,33.00
2018-11-02T02:22:50.152Z,28.53
2018-11-02T02:25:22.018Z,26.27
2018-11-02T02:27:53.764Z,34.70
2018-11-02T02:30:25.363Z,36.00
2018-11-02T02:32:57.183Z,38.10
2018-11-02T02:35:28.480Z,32.70
2018-11-02T02:37:59.900Z,35.30
2018-11-02T02:40:31.649Z,35.43
2018-11-02T02:43:03.169Z,33.70
2018-11-02T02:45:34.825Z,33.40
2018-11-02T02:48:06.359Z,38.10
2018-11-02T02:50:38.015Z,37.97
2018-11-02T02:53:09.635Z,40.30
2018-11-02T02:55:42.138Z,35.70
2018-11-02T02:58:13.667Z,37.90
2018-11-02T03:00:45.503Z,41.87
2018-11-02T03:03:16.956Z,35.60
2018-11-02T03:05:48.535Z,38.03
2018-11-02T03:08:20.290Z,42.80
2018-11-02T03:10:51.979Z,42.97
2018-11-02T03:13:23.543Z,38.40
2018-11-02T03:15:56.023Z,46.23
2018-11-02T03:18:27.530Z,39.90
2018-11-02T03:20:59.060Z,43.20
2018-11-02T03:23:31.007Z,44.67
2018-11-02T03:26:02.574Z,43.00
2018-11-02T03:28:34.239Z,53.57
2018-11-02T03:31:05.868Z,47.20
2018-11-02T03:33:37.619Z,52.67
2018-11-02T03:36:09.839Z,40.23
2018-11-02T03:38:41.368Z,43.30
2018-11-02T03:41:13.124Z,45.00
2018-11-02T03:43:44.675Z,45.97
2018-11-02T03:46:16.525Z,46.37
2018-11-02T03:48:48.083Z,43.77
2018-11-02T03:51:19.544Z,47.27
2018-11-02T03:53:51.078Z,46.03
2018-11-02T03:56:22.803Z,43.20
2018-11-02T03:58:54.423Z,43.57
2018-11-02T04:01:27.073Z,47.47
2018-11-02T04:03:58.763Z,48.40
2018-11-02T04:06:30.604Z,44.23
2018-11-02T04:09:02.216Z,41.70
2018-11-02T04:11:33.936Z,50.33
2018-11-02T04:14:07.655Z,41.43
2018-11-02T04:16:42.048Z,42.03
2018-11-02T04:19:13.788Z,39.90
2018-11-02T04:21:48.165Z,43.43
2018-11-02T04:24:20.153Z,43.00
2018-11-02T04:26:51.771Z,44.90
2018-11-02T04:29:23.797Z,45.20
2018-11-02T04:31:55.269Z,39.00
2018-11-02T04:34:27.836Z,43.23
2018-11-02T04:36:59.160Z,42.63
2018-11-02T04:39:31.641Z,41.37
2018-11-02T04:42:03.101Z,42.10
2018-11-02T04:44:34.573Z,37.90
2018-11-02T04:47:06.243Z,40.67
2018-11-02T04:49:37.846Z,42.70
2018-11-02T04:52:09.430Z,43.33
2018-11-02T04:54:41.136Z,39.10
2018-11-02T04:57:12.719Z,42.43
2018-11-02T04:59:44.460Z,37.63
2018-11-02T05:02:15.918Z,41.03
2018-11-02T05:07:33.378Z,43.10
2018-11-02T05:10:05.135Z,35.90
2018-11-02T05:12:36.658Z,37.90
2018-11-02T05:15:08.548Z,44.63
2018-11-02T05:17:40.394Z,40.97
2018-11-02T05:20:12.483Z,45.57
2018-11-02T05:22:44.782Z,40.97
2018-11-02T05:25:16.280Z,40.00
2018-11-02T05:27:48.154Z,42.03
2018-11-02T05:30:19.660Z,42.17
2018-11-02T05:32:52.287Z,41.10
2018-11-02T05:35:23.804Z,41.90
2018-11-02T05:37:55.650Z,42.33
2018-11-02T05:40:27.208Z,45.03
2018-11-02T05:42:58.687Z,43.40
2018-11-02T05:45:30.627Z,42.30
2018-11-02T05:48:02.599Z,47.33
2018-11-02T05:50:35.001Z,42.47
2018-11-02T05:53:06.823Z,41.80
2018-11-02T05:55:38.325Z,44.80
2018-11-02T05:58:10.882Z,48.47
2018-11-02T06:00:42.561Z,41.83
2018-11-02T06:03:14.493Z,43.90
2018-11-02T06:05:51.484Z,52.63
2018-11-02T06:08:28.367Z,52.77
2018-11-02T06:11:00.567Z,47.70
2018-11-02T06:13:32.224Z,45.53
2018-11-02T06:16:03.991Z,52.60
2018-11-02T06:18:36.667Z,46.60
2018-11-02T06:21:08.307Z,42.53
2018-11-02T06:23:40.023Z,45.43
2018-11-02T06:26:11.479Z,43.67
2018-11-02T06:28:43.143Z,45.40
2018-11-02T06:31:14.787Z,44.87
2018-11-02T06:33:46.319Z,42.97
2018-11-02T06:36:18.719Z,39.37
2018-11-02T06:38:50.439Z,40.93
2018-11-02T06:41:22.723Z,42.10
2018-11-02T06:43:54.297Z,38.27
2018-11-02T06:46:26.080Z,39.60
2018-11-02T06:48:57.768Z,37.17
2018-11-02T06:51:29.484Z,40.97
2018-11-02T06:54:01.279Z,37.53
2018-11-02T06:56:32.889Z,37.60
2018-11-02T06:59:05.319Z,34.80
2018-11-02T07:01:37.726Z,40.53
2018-11-02T07:04:09.319Z,40.40
2018-11-02T07:06:41.003Z,39.80
2018-11-02T07:09:13.499Z,39.97
2018-11-02T07:11:45.573Z,35.30
2018-11-02T07:14:17.207Z,36.87
2018-11-02T07:16:49.704Z,35.47
2018-11-02T07:19:21.429Z,32.43
2018-11-02T07:21:54.049Z,35.97
2018-11-02T07:24:25.782Z,34.97
2018-11-02T07:26:57.601Z,36.37
2018-11-02T07:29:29.951Z,37.33
2018-11-02T07:32:01.584Z,49.30
2018-11-02T07:34:33.995Z,32.80
2018-11-02T07:37:06.195Z,34.43
2018-11-02T07:39:37.884Z,31.50
2018-11-02T07:42:09.713Z,29.63
2018-11-02T07:44:41.654Z,33.13
2018-11-02T07:47:15.053Z,31.73
2018-11-02T07:49:46.732Z,27.90
2018-11-02T07:52:28.687Z,33.57
2018-11-02T07:55:09.116Z,34.77
2018-11-02T07:57:41.577Z,29.60
2018-11-02T08:00:15.582Z,30.10
2018-11-02T08:02:48.516Z,27.37
2018-11-02T08:05:20.122Z,29.33
2018-11-02T08:07:52.124Z,32.47
2018-11-02T08:10:24.478Z,26.90
2018-11-02T08:12:56.130Z,36.10
2018-11-02T08:15:28.474Z,33.07
2018-11-02T08:17:59.934Z,32.80
2018-11-02T08:20:31.575Z,29.27
2018-11-02T08:23:03.250Z,26.47
2018-11-02T08:25:35.116Z,30.73
2018-11-02T08:28:06.911Z,29.37
2018-11-02T08:30:38.722Z,26.17
2018-11-02T08:33:10.458Z,24.73
2018-11-02T08:35:42.042Z,27.10
2018-11-02T08:38:13.542Z,25.97
2018-11-02T08:40:45.178Z,28.37
2018-11-02T08:43:16.888Z,30.83
2018-11-02T08:45:48.469Z,28.40
2018-11-02T08:48:20.240Z,23.83
2018-11-02T08:50:51.845Z,24.63
2018-11-02T08:53:23.291Z,23.33
2018-11-02T08:55:54.905Z,26.13
2018-11-02T08:58:26.915Z,25.40
2018-11-02T09:00:58.405Z,23.03
2018-11-02T09:03:29.973Z,20.93
2018-11-02T09:06:01.726Z,22.43
2018-11-02T09:08:33.769Z,21.80
2018-11-02T09:11:05.344Z,19.63
2018-11-02T09:13:37.189Z,20.33
2018-11-02T09:16:09.785Z,27.03
2018-11-02T09:18:41.455Z,20.70
2018-11-02T09:21:13.212Z,20.00
2018-11-02T09:23:45.085Z,23.73
2018-11-02T09:26:16.757Z,26.63
2018-11-02T09:28:48.414Z,20.20
2018-11-02T09:31:20.162Z,132.50
2018-11-02T09:33:52.677Z,312.70
2018-11-02T09:36:24.611Z,106.77
2018-11-02T09:38:56.161Z,36.47
2018-11-02T09:41:27.839Z,23.80
2018-11-02T09:44:00.425Z,26.03
2018-11-02T09:46:32.323Z,24.43
2018-11-02T09:49:04.119Z,17.97
2018-11-02T09:51:35.808Z,17.07
2018-11-02T09:54:07.489Z,28.17
2018-11-02T09:56:39.855Z,17.60
2018-11-02T09:59:11.390Z,23.40
2018-11-02T10:01:43.101Z,14.07
2018-11-02T10:04:15.715Z,19.23
2018-11-02T10:06:47.663Z,16.97
2018-11-02T10:09:19.527Z,13.97
2018-11-02T10:11:51.853Z,20.53
2018-11-02T10:14:23.714Z,14.93
2018-11-02T10:16:55.257Z,8.80
2018-11-02T10:19:27.493Z,9.20
2018-11-02T10:21:59.747Z,12.27
2018-11-02T10:24:31.534Z,14.90
2018-11-02T10:27:03.992Z,6.50
2018-11-02T10:29:35.948Z,6.10
2018-11-02T10:32:08.084Z,9.53
2018-11-02T10:34:40.172Z,11.60
2018-11-02T10:37:12.763Z,9.60
2018-11-02T10:39:44.700Z,7.17
2018-11-02T10:42:16.999Z,12.63
2018-11-02T10:44:49.664Z,5.33
2018-11-02T10:47:21.743Z,3.60
2018-11-02T10:49:53.327Z,6.33
2018-11-02T10:52:25.271Z,5.63
2018-11-02T10:54:56.866Z,6.10
2018-11-02T10:57:29.185Z,8.87
2018-11-02T11:00:00.988Z,7.23
2018-11-02T11:02:38.735Z,8.83
2018-11-02T11:05:10.327Z,5.53
2018-11-02T11:07:41.971Z,6.33
2018-11-02T11:10:13.632Z,2.73
2018-11-02T11:12:45.724Z,2.43
2018-11-02T11:15:17.052Z,2.97
2018-11-02T11:17:48.747Z,9.47
2018-11-02T11:20:20.308Z,4.53
2018-11-02T11:22:52.166Z,5.43
2018-11-02T11:25:23.631Z,4.83
2018-11-02T11:27:55.061Z,7.63
2018-11-02T11:30:26.718Z,11.00
2018-11-02T11:32:58.586Z,6.60
2018-11-02T11:35:30.222Z,1.97
2018-11-02T11:38:01.887Z,8.13
2018-11-02T11:40:33.626Z,6.83
2018-11-02T11:43:06.235Z,4.10
2018-11-02T11:45:38.526Z,10.57
2018-11-02T11:48:10.102Z,5.60
2018-11-02T11:50:41.943Z,5.50
2018-11-02T11:53:14.219Z,6.90
2018-11-02T11:55:45.841Z,5.50
2018-11-02T11:58:17.737Z,5.57
2018-11-02T12:00:50.472Z,3.90
2018-11-02T12:03:22.895Z,3.27
2018-11-02T12:05:54.480Z,5.07
2018-11-02T12:08:26.210Z,3.83
2018-11-02T12:10:58.056Z,6.40
2018-11-02T12:13:30.732Z,2.67
2018-11-02T12:16:02.613Z,3.07
2018-11-02T12:18:34.384Z,3.97
2018-11-02T12:21:06.367Z,5.13
2018-11-02T12:23:38.298Z,4.70
2018-11-02T12:26:09.993Z,8.57
2018-11-02T12:28:41.797Z,2.67
2018-11-02T12:31:13.610Z,3.27
2018-11-02T12:33:45.210Z,2.20
2018-11-02T12:36:16.943Z,2.80
2018-11-02T12:38:48.608Z,4.87
2018-11-02T12:41:20.560Z,8.20
2018-11-02T12:43:52.254Z,2.37
2018-11-02T12:46:23.946Z,8.10
2018-11-02T12:48:55.759Z,4.90
2018-11-02T12:51:27.362Z,3.20
2018-11-02T12:53:59.133Z,3.23
2018-11-02T12:56:30.960Z,3.10
2018-11-02T12:59:02.703Z,4.50
2018-11-02T13:01:34.469Z,3.00
2018-11-02T13:04:06.719Z,4.43
2018-11-02T13:06:39.051Z,4.00
2018-11-02T13:09:10.758Z,1.57
2018-11-02T13:11:42.554Z,9.07
2018-11-02T13:14:14.957Z,3.70
2018-11-02T13:16:47.324Z,2.77
2018-11-02T13:19:18.894Z,3.47
2018-11-02T13:21:50.721Z,2.17
2018-11-02T13:24:22.488Z,3.57
2018-11-02T13:26:54.782Z,6.33
2018-11-02T13:29:26.473Z,3.73
2018-11-02T13:31:59.171Z,3.17
2018-11-02T13:34:31.509Z,5.13
2018-11-02T13:37:03.389Z,1.47
2018-11-02T13:39:34.984Z,6.90
2018-11-02T13:42:06.878Z,4.20
2018-11-02T13:44:38.537Z,4.67
2018-11-02T13:47:10.865Z,3.43
2018-11-02T13:49:42.672Z,2.70
2018-11-02T13:52:14.359Z,1.77
2018-11-02T13:54:46.275Z,2.83
2018-11-02T13:57:17.861Z,3.43
2018-11-02T13:59:49.867Z,2.60
2018-11-02T14:02:21.752Z,1.83
2018-11-02T14:04:53.313Z,6.20
2018-11-02T14:07:25.319Z,3.90
2018-11-02T14:09:57.730Z,3.17
2018-11-02T14:12:29.683Z,4.90
2018-11-02T14:15:01.394Z,2.00
2018-11-02T14:17:33.068Z,3.33
2018-11-02T14:20:04.717Z,2.70
2018-11-02T14:22:36.614Z,2.47
2018-11-02T14:25:10.036Z,2.27
2018-11-02T14:27:41.849Z,11.37
2018-11-02T14:30:14.861Z,8.53
2018-11-02T14:32:47.452Z,3.70
2018-11-02T14:35:19.291Z,4.10
2018-11-02T14:37:51.197Z,2.70
2018-11-02T14:40:23.218Z,7.90
2018-11-02T14:42:55.047Z,6.17
2018-11-02T14:45:26.908Z,6.27
2018-11-02T14:47:59.199Z,4.93
2018-11-02T14:50:30.813Z,3.17
2018-11-02T14:53:02.461Z,3.57
2018-11-02T14:55:34.802Z,4.00
2018-11-02T14:58:06.578Z,5.00
2018-11-02T15:00:38.361Z,3.23
2018-11-02T15:03:10.173Z,6.10
2018-11-02T15:05:41.872Z,1.50
2018-11-02T15:08:14.290Z,2.73
2018-11-02T15:10:45.943Z,6.70
2018-11-02T15:13:17.634Z,4.10
2018-11-02T15:15:49.454Z,7.43
2018-11-02T15:18:21.618Z,5.83
2018-11-02T15:20:53.360Z,5.10
2018-11-02T15:23:24.979Z,7.00
2018-11-02T15:25:56.918Z,14.87
2018-11-02T15:28:28.679Z,8.33
2018-11-02T15:31:01.139Z,7.57
2018-11-02T15:33:32.997Z,5.60
2018-11-02T15:36:04.771Z,2.43
2018-11-02T15:38:36.839Z,2.53
2018-11-02T15:41:08.834Z,2.80
2018-11-02T15:43:40.533Z,6.20
2018-11-02T15:46:12.556Z,2.10
2018-11-02T15:48:44.464Z,3.23
2018-11-02T15:51:16.128Z,3.03
2018-11-02T15:53:47.810Z,1.17
2018-11-02T15:56:20.409Z,4.63
2018-11-02T15:58:52.476Z,6.93
2018-11-02T16:01:24.117Z,12.90
2018-11-02T16:03:55.960Z,2.13
2018-11-02T16:06:27.649Z,5.23
2018-11-02T16:08:59.762Z,5.57
2018-11-02T16:11:31.420Z,6.63
2018-11-02T16:14:03.787Z,4.53
2018-11-02T16:16:35.445Z,1.30
2018-11-02T16:19:07.167Z,1.80
2018-11-02T16:21:39.397Z,2.20
2018-11-02T16:24:12.132Z,2.20
2018-11-02T16:26:43.771Z,5.40
2018-11-02T16:29:15.558Z,2.40
2018-11-02T16:31:47.225Z,5.33
2018-11-02T16:34:19.017Z,5.63
2018-11-02T16:36:51.315Z,3.53
2018-11-02T16:39:22.903Z,4.10
2018-11-02T16:41:54.724Z,3.00
2018-11-02T16:44:26.538Z,3.47
2018-11-02T16:46:58.164Z,4.60
2018-11-02T16:49:40.360Z,6.20
2018-11-02T16:52:20.660Z,2.17
2018-11-02T16:54:52.913Z,4.00
2018-11-02T16:57:24.833Z,3.80
2018-11-02T16:59:56.834Z,2.87
2018-11-02T17:02:28.460Z,3.90
2018-11-02T17:05:00.541Z,1.60
2018-11-02T17:07:32.195Z,5.70
2018-11-02T17:10:03.940Z,3.00
2018-11-02T17:12:35.761Z,6.07
2018-11-02T17:15:07.960Z,4.43
2018-11-02T17:17:39.854Z,2.80
2018-11-02T17:20:14.477Z,3.43
2018-11-02T17:22:46.403Z,6.37
2018-11-02T17:25:18.920Z,3.90
2018-11-02T17:27:50.529Z,9.30
2018-11-02T17:30:22.316Z,4.83
2018-11-02T17:32:54.188Z,3.93
2018-11-02T17:35:26.564Z,13.77
2018-11-02T17:37:58.700Z,3.00
2018-11-02T17:40:31.286Z,4.87
2018-11-02T17:43:02.949Z,2.57
2018-11-02T17:45:34.937Z,3.03
2018-11-02T17:48:06.867Z,2.90
2018-11-02T17:50:38.874Z,3.57
2018-11-02T17:53:11.351Z,5.63
2018-11-02T17:55:43.884Z,3.53
2018-11-02T17:58:15.478Z,4.40
2018-11-02T18:00:47.369Z,2.77
2018-11-02T18:03:19.049Z,2.93
2018-11-02T18:05:50.972Z,6.47
2018-11-02T18:08:23.089Z,3.63
2018-11-02T18:10:54.828Z,5.10
2018-11-02T18:13:27.430Z,2.60
2018-11-02T18:15:59.352Z,2.20
2018-11-02T18:18:32.023Z,3.43
2018-11-02T18:21:03.970Z,1.80
2018-11-02T18:23:36.608Z,4.03
2018-11-02T18:26:08.822Z,2.33
2018-11-02T18:28:40.833Z,9.60
2018-11-02T18:31:13.067Z,4.60
2018-11-02T18:33:45.632Z,1.60
2018-11-02T18:36:17.794Z,6.20
2018-11-02T18:38:49.670Z,7.77
2018-11-02T18:41:22.623Z,3.13
2018-11-02T18:43:55.177Z,5.60
2018-11-02T18:46:26.948Z,2.57
2018-11-02T18:48:58.818Z,2.83
2018-11-02T18:51:30.389Z,3.93
2018-11-02T18:54:02.145Z,8.10
2018-11-02T18:56:34.936Z,6.97
2018-11-02T18:59:07.344Z,3.67
2018-11-02T19:01:39.234Z,5.50
2018-11-02T19:04:13.146Z,4.93
2018-11-02T19:06:45.365Z,8.87
2018-11-02T19:09:18.069Z,5.57
2018-11-02T19:11:50.108Z,6.40
2018-11-02T19:14:22.523Z,4.47
2018-11-02T19:16:54.718Z,3.83
2018-11-02T19:19:26.580Z,4.23
2018-11-02T19:21:58.570Z,4.20
2018-11-02T19:24:30.316Z,2.27
2018-11-02T19:27:02.262Z,3.33
2018-11-02T19:29:34.299Z,8.63
2018-11-02T19:32:06.392Z,4.20
2018-11-02T19:34:43.624Z,12.70
2018-11-02T19:37:16.266Z,3.90
2018-11-02T19:39:49.095Z,3.93
2018-11-02T19:42:21.822Z,11.27
2018-11-02T19:44:53.629Z,7.40
2018-11-02T19:47:29.993Z,5.33
2018-11-02T19:50:01.746Z,3.00
2018-11-02T19:52:33.673Z,6.23
2018-11-02T19:55:07.525Z,3.20
2018-11-02T19:57:40.580Z,4.60
2018-11-02T20:00:14.184Z,4.67
2018-11-02T20:02:47.853Z,4.43
2018-11-02T20:05:20.716Z,8.73
2018-11-02T20:07:53.621Z,2.10
2018-11-02T20:10:25.324Z,1.90
2018-11-02T20:12:58.169Z,6.70
2018-11-02T20:15:31.638Z,3.53
2018-11-02T20:18:04.112Z,3.03
2018-11-02T20:20:36.664Z,5.87
2018-11-02T20:23:08.538Z,2.67
2018-11-02T20:25:40.400Z,7.13
2018-11-02T20:28:12.348Z,1.67
2018-11-02T20:30:44.080Z,1.60
2018-11-02T20:33:16.299Z,2.40
2018-11-02T20:35:48.305Z,6.63
2018-11-02T20:38:20.712Z,7.80
2018-11-02T20:40:52.702Z,10.13
2018-11-02T20:43:24.456Z,14.87
2018-11-02T20:45:57.571Z,15.83
2018-11-02T20:48:29.225Z,13.07
2018-11-02T20:51:01.057Z,15.53
2018-11-02T20:53:33.196Z,13.20
2018-11-02T20:56:06.055Z,17.30
2018-11-02T20:58:39.418Z,18.13
2018-11-02T21:01:11.747Z,16.87
2018-11-02T21:03:43.871Z,15.27
2018-11-02T21:06:17.001Z,11.80
2018-11-02T21:08:48.874Z,13.80
2018-11-02T21:11:22.549Z,14.93
2018-11-02T21:13:54.621Z,8.37
2018-11-02T21:16:26.591Z,7.93
2018-11-02T21:18:58.831Z,5.83
2018-11-02T21:21:31.812Z,7.90
2018-11-02T21:24:04.118Z,8.70
2018-11-02T21:26:36.487Z,4.23
2018-11-02T21:29:09.090Z,6.13
2018-11-02T21:31:40.843Z,4.13
2018-11-02T21:34:12.546Z,4.87
2018-11-02T21:36:44.887Z,8.70
2018-11-02T21:39:16.615Z,3.77
2018-11-02T21:41:49.701Z,3.10
2018-11-02T21:44:21.330Z,4.43
2018-11-02T21:46:53.273Z,2.83
2018-11-02T21:49:25.117Z,5.47
2018-11-02T21:51:56.779Z,3.60
2018-11-02T21:54:29.452Z,4.17
2018-11-02T21:57:01.484Z,2.57
2018-11-02T21:59:33.326Z,2.90
2018-11-02T22:02:05.074Z,3.57
2018-11-02T22:04:36.853Z,3.87
2018-11-02T22:07:09.512Z,2.20
2018-11-02T22:09:41.096Z,3.10
2018-11-02T22:12:12.943Z,3.57
2018-11-02T22:14:45.622Z,2.57
2018-11-02T22:17:17.956Z,2.43
2018-11-02T22:19:49.520Z,2.20
2018-11-02T22:22:21.399Z,2.53
2018-11-02T22:24:53.502Z,3.30
2018-11-02T22:27:25.196Z,5.53
2018-11-02T22:29:57.579Z,2.00
2018-11-02T22:32:29.288Z,1.33
2018-11-02T22:35:01.742Z,1.80
2018-11-02T22:37:34.615Z,1.47
2018-11-02T22:40:06.983Z,1.90
2018-11-02T22:42:38.897Z,2.67
2018-11-02T22:45:11.774Z,3.20
2018-11-02T22:47:47.984Z,2.00
2018-11-02T22:50:19.590Z,3.10
2018-11-02T22:52:52.001Z,2.33
2018-11-02T22:55:23.746Z,4.93
2018-11-02T22:57:55.504Z,1.37
2018-11-02T23:00:27.413Z,1.73
2018-11-02T23:02:59.129Z,2.33
2018-11-02T23:05:30.768Z,4.57
2018-11-02T23:08:02.552Z,13.50
2018-11-02T23:10:34.246Z,2.90
2018-11-02T23:13:06.197Z,3.20
2018-11-02T23:15:37.970Z,3.50
2018-11-02T23:18:09.625Z,2.40
2018-11-02T23:20:41.256Z,1.50
2018-11-02T23:23:13.695Z,2.67
2018-11-02T23:25:46.233Z,2.80
2018-11-02T23:28:18.872Z,2.90
2018-11-02T23:30:50.523Z,2.50
2018-11-02T23:33:22.424Z,4.57
2018-11-02T23:35:54.071Z,1.67
2018-11-02T23:38:26.487Z,2.43
2018-11-02T23:40:58.306Z,4.90
2018-11-02T23:43:30.653Z,1.57
2018-11-02T23:46:02.316Z,2.17
2018-11-02T23:48:33.895Z,1.37
2018-11-02T23:51:05.632Z,1.93
2018-11-02T23:53:37.227Z,2.60
2018-11-02T23:56:09.063Z,2.37
2018-11-02T23:58:40.656Z,1.30
